Time;durP1;ratioP1;P1;durP2;ratioP2;P2;SDS_P1;SDS_P2;PMS_P1;PMS_P2;Temp;Humidity;BMP_temperature;BMP_pressure;BME280_temperature;BME280_humidity;BME280_pressure;Samples;Min_cycle;Max_cycle;Signal;HPM_P1;HPM_P2
2024/01/28 00:02:24;;;;;;;29.10;17.53;;;5.40;94.40;;;;;;6245022;23;20027;-76
2024/01/28 00:04:50;;;;;;;27.30;16.93;;;5.30;94.50;;;;;;6245292;23;20004;-77
2024/01/28 00:07:16;;;;;;;29.67;16.50;;;5.30;94.40;;;;;;6218315;23;20326;-77
2024/01/28 00:09:44;;;;;;;26.90;16.73;;;5.30;94.30;;;;;;6245445;23;20123;-75
2024/01/28 00:12:10;;;;;;;27.80;15.27;;;5.30;94.10;;;;;;6218343;23;20335;-77
2024/01/28 00:14:37;;;;;;;20.23;11.43;;;5.30;94.40;;;;;;6245166;23;20075;-77
2024/01/28 00:17:03;;;;;;;22.30;12.77;;;5.30;94.10;;;;;;6245169;23;20503;-77
2024/01/28 00:19:28;;;;;;;16.93;10.20;;;5.30;93.90;;;;;;6244779;23;19996;-77
2024/01/28 00:21:54;;;;;;;22.23;10.83;;;5.30;93.90;;;;;;6244826;23;20099;-77
2024/01/28 00:24:21;;;;;;;17.80;9.97;;;5.30;93.80;;;;;;6244692;23;20004;-76
2024/01/28 00:26:47;;;;;;;14.00;8.47;;;5.40;93.60;;;;;;6245497;23;20015;-78
2024/01/28 00:29:13;;;;;;;19.73;10.43;;;5.40;93.50;;;;;;6244852;23;20327;-76
2024/01/28 00:31:38;;;;;;;22.83;13.03;;;5.50;93.10;;;;;;6244858;23;20053;-78
2024/01/28 00:34:04;;;;;;;25.13;14.23;;;5.50;93.00;;;;;;6244864;23;20008;-77
2024/01/28 00:36:31;;;;;;;25.43;15.13;;;5.50;93.00;;;;;;6246699;23;20008;-75
2024/01/28 00:38:56;;;;;;;28.37;15.77;;;5.40;93.10;;;;;;6246831;23;20000;-76
2024/01/28 00:41:28;;;;;;;25.90;15.63;;;5.30;93.20;;;;;;6219846;23;20016;-77
2024/01/28 00:43:54;;;;;;;26.73;14.67;;;5.30;93.30;;;;;;6247314;23;20015;-76
2024/01/28 00:46:21;;;;;;;25.97;15.27;;;5.30;93.50;;;;;;6247162;23;20004;-77
2024/01/28 00:48:48;;;;;;;27.27;14.77;;;5.20;93.50;;;;;;6246721;23;20070;-77
2024/01/28 00:51:13;;;;;;;30.63;14.60;;;5.20;93.40;;;;;;6247288;23;20007;-77
2024/01/28 00:53:39;;;;;;;25.60;13.37;;;5.20;93.30;;;;;;6246784;23;20001;-77
2024/01/28 00:56:05;;;;;;;25.40;12.73;;;5.10;93.40;;;;;;6246995;23;20043;-77
2024/01/28 00:58:31;;;;;;;24.40;11.37;;;5.10;93.40;;;;;;6247161;23;20003;-77
2024/01/28 01:00:57;;;;;;;17.27;9.00;;;5.10;93.00;;;;;;6250227;23;20008;-76
2024/01/28 01:03:23;;;;;;;15.43;8.87;;;5.10;93.00;;;;;;6250171;23;20027;-77
2024/01/28 01:05:48;;;;;;;21.90;9.30;;;5.20;92.90;;;;;;6250739;23;20011;-77
2024/01/28 01:08:14;;;;;;;19.37;9.30;;;5.20;93.10;;;;;;6250270;23;20023;-76
2024/01/28 01:10:43;;;;;;;18.07;9.00;;;5.10;93.00;;;;;;6250418;23;19996;-76
2024/01/28 01:13:09;;;;;;;17.73;8.80;;;5.10;93.40;;;;;;6249499;23;20000;-77
2024/01/28 01:15:35;;;;;;;15.50;8.80;;;5.20;93.30;;;;;;6250174;23;20484;-77
2024/01/28 01:18:00;;;;;;;25.73;12.77;;;5.10;93.50;;;;;;6249720;23;20329;-77
2024/01/28 01:20:26;;;;;;;21.57;12.30;;;5.20;93.10;;;;;;6250547;23;20016;-77
2024/01/28 01:22:54;;;;;;;26.43;13.43;;;5.10;93.00;;;;;;6251353;23;20122;-71
2024/01/28 01:25:20;;;;;;;21.13;11.03;;;5.00;93.40;;;;;;6246808;23;20004;-72
2024/01/28 01:27:48;;;;;;;27.27;14.33;;;4.90;93.50;;;;;;6246541;23;20034;-72
2024/01/28 01:30:15;;;;;;;29.57;14.87;;;4.90;93.10;;;;;;6246351;23;20028;-72
2024/01/28 01:32:41;;;;;;;27.83;13.43;;;4.80;93.80;;;;;;6245082;23;20445;-72
2024/01/28 01:35:11;;;;;;;28.40;15.20;;;4.80;93.60;;;;;;6247200;23;20036;-73
2024/01/28 01:37:37;;;;;;;27.30;14.13;;;4.80;93.30;;;;;;6246217;23;19996;-72
2024/01/28 01:40:04;;;;;;;29.93;15.60;;;4.70;93.30;;;;;;6246594;23;20012;-73
2024/01/28 01:42:30;;;;;;;29.80;15.83;;;;;;;;;;6246315;23;20003;-73
2024/01/28 01:44:57;;;;;;;23.90;14.67;;;;;;;;;;6219659;23;20008;-72
2024/01/28 01:47:24;;;;;;;26.17;14.00;;;;;;;;;;6246317;23;20008;-73
2024/01/28 01:49:50;;;;;;;25.57;13.07;;;;;;;;;;6219369;23;20004;-72
2024/01/28 01:52:16;;;;;;;23.53;12.43;;;;;;;;;;6219057;23;20388;-71
2024/01/28 01:54:49;;;;;;;28.10;13.53;;;;;;;;;;6246297;23;20004;-72
2024/01/28 01:57:16;;;;;;;;;;;;;;;;;;6246563;23;20024;-72
2024/01/28 01:59:43;;;;;;;21.57;11.50;;;;;;;;;;6242301;23;19911;-72
2024/01/28 02:02:09;;;;;;;22.27;12.97;;;;;;;;;;6243248;23;20403;-73
2024/01/28 02:04:36;;;;;;;20.83;10.90;;;;;;;;;;6244230;23;20449;-72
2024/01/28 02:07:02;;;;;;;18.80;11.13;;;;;;;;;;6245672;23;20079;-72
2024/01/28 02:09:29;;;;;;;19.97;11.40;;;;;;;;;;6245691;23;20000;-72
2024/01/28 02:11:55;;;;;;;26.17;13.77;;;;;;;;;;6246157;23;20442;-72
2024/01/28 02:14:21;;;;;;;27.80;13.73;;;;;;;;;;6245365;23;19997;-72
2024/01/28 02:16:50;;;;;;;24.73;13.27;;;;;;;;;;6245586;23;20054;-72
2024/01/28 02:19:17;;;;;;;27.93;14.07;;;;;;;;;;6245677;23;20123;-74
2024/01/28 02:21:44;;;;;;;28.90;14.40;;;;;;;;;;6245382;23;20012;-74
2024/01/28 02:24:13;;;;;;;25.50;14.40;;;;;;;;;;6219112;23;20004;-72
2024/01/28 02:26:39;;;;;;;26.07;13.67;;;;;;;;;;6245876;23;20005;-72
2024/01/28 02:29:06;;;;;;;28.73;13.83;;;;;;;;;;6245497;23;20007;-74
2024/01/28 02:31:32;;;;;;;25.53;14.33;;;;;;;;;;6245627;23;20488;-72
2024/01/28 02:33:58;;;;;;;22.97;13.23;;;;;;;;;;6245212;23;20007;-74
2024/01/28 02:36:25;;;;;;;24.13;12.90;;;;;;;;;;6245077;23;20341;-72
2024/01/28 02:38:51;;;;;;;22.13;13.20;;;;;;;;;;6245406;23;20001;-73
2024/01/28 02:41:17;;;;;;;23.83;13.20;;;;;;;;;;6245222;23;20065;-72
2024/01/28 02:43:43;;;;;;;20.23;11.83;;;;;;;;;;6245313;23;20071;-72
2024/01/28 02:46:09;;;;;;;26.87;12.60;;;;;;;;;;6245599;23;20004;-72
2024/01/28 02:48:35;;;;;;;23.83;12.73;;;;;;;;;;6245726;23;20008;-72
2024/01/28 02:51:01;;;;;;;25.27;13.43;;;;;;;;;;6245806;23;20054;-73
2024/01/28 02:53:27;;;;;;;23.90;12.53;;;;;;;;;;6218633;23;20426;-73
2024/01/28 02:55:59;;;;;;;22.10;11.27;;;;;;;;;;6245296;23;20004;-72
2024/01/28 02:58:25;;;;;;;19.53;11.00;;;;;;;;;;6218914;23;20058;-72
2024/01/28 03:00:52;;;;;;;19.97;10.13;;;;;;;;;;6218944;23;20019;-71
2024/01/28 03:03:18;;;;;;;19.27;11.60;;;;;;;;;;6218800;23;20004;-70
2024/01/28 03:05:45;;;;;;;19.83;11.47;;;;;;;;;;6245608;23;20008;-72
2024/01/28 03:08:11;;;;;;;17.37;9.87;;;;;;;;;;6245368;23;20000;-73
2024/01/28 03:10:37;;;;;;;21.27;10.97;;;;;;;;;;6245817;23;20004;-72
2024/01/28 03:13:04;;;;;;;20.03;10.20;;;;;;;;;;6245731;23;20031;-73
2024/01/28 03:15:30;;;;;;;18.23;9.57;;;;;;;;;;6245497;23;20323;-71
2024/01/28 03:17:56;;;;;;;20.27;9.20;;;;;;;;;;6245498;23;20461;-72
2024/01/28 03:20:24;;;;;;;15.00;8.27;;;;;;;;;;6245405;23;20038;-71
2024/01/28 03:22:50;;;;;;;11.40;5.90;;;;;;;;;;6245085;23;20003;-73
2024/01/28 03:25:16;;;;;;;8.97;3.77;;;3.90;99.90;;;;;;6218361;23;20428;-72
2024/01/28 03:27:42;;;;;;;11.17;6.00;;;4.00;99.90;;;;;;6245243;23;20004;-72
2024/01/28 03:30:08;;;;;;;13.67;8.07;;;4.10;99.90;;;;;;6245183;23;20035;-72
2024/01/28 03:32:34;;;;;;;14.23;7.87;;;4.20;99.90;;;;;;6245023;23;20435;-72
2024/01/28 03:35:03;;;;;;;16.37;8.80;;;4.20;99.90;;;;;;6245193;23;20054;-72
2024/01/28 03:37:28;;;;;;;16.43;8.87;;;4.10;99.90;;;;;;6245416;23;19999;-72
2024/01/28 03:39:54;;;;;;;17.87;8.53;;;4.00;99.90;;;;;;6218078;23;20004;-72
2024/01/28 03:42:21;;;;;;;12.10;7.33;;;4.00;99.90;;;;;;6245154;23;20028;-73
2024/01/28 03:44:47;;;;;;;13.47;7.57;;;4.00;99.90;;;;;;6245143;23;20308;-73
2024/01/28 03:47:13;;;;;;;14.67;7.87;;;4.10;99.90;;;;;;6245533;23;20089;-72
2024/01/28 03:49:38;;;;;;;12.70;7.47;;;4.00;99.90;;;;;;6244813;23;20012;-72
2024/01/28 03:52:05;;;;;;;16.03;8.03;;;3.80;99.90;;;;;;6244829;23;20330;-74
2024/01/28 03:54:30;;;;;;;17.50;9.80;;;3.70;99.90;;;;;;6245416;23;20043;-73
2024/01/28 03:56:56;;;;;;;19.73;9.77;;;3.60;99.90;;;;;;6245086;23;20004;-71
2024/01/28 03:59:22;;;;;;;18.93;10.73;;;3.60;99.90;;;;;;6245133;23;20008;-72
2024/01/28 04:01:48;;;;;;;22.27;11.33;;;;;;;;;;6245292;23;20012;-75
2024/01/28 04:04:13;;;;;;;19.77;11.00;;;3.40;99.90;;;;;;6245279;23;20004;-71
2024/01/28 04:06:46;;;;;;;17.43;10.30;;;3.40;97.30;;;;;;6244778;23;20035;-72
2024/01/28 04:09:13;;;;;;;21.08;10.65;;;3.40;94.70;;;;;;6245055;23;20062;-76
2024/01/28 04:11:39;;;;;;;22.07;10.27;;;3.40;93.80;;;;;;6244567;23;20088;-77
2024/01/28 04:14:05;;;;;;;20.57;9.40;;;3.30;93.60;;;;;;6244894;23;20003;-78
2024/01/28 04:16:34;;;;;;;16.97;8.97;;;3.30;93.60;;;;;;6244940;23;20007;-76
2024/01/28 04:19:00;;;;;;;22.67;17.50;;;3.30;93.50;;;;;;6245594;23;20080;-74
2024/01/28 04:21:27;;;;;;;26.80;21.37;;;3.30;94.00;;;;;;6244591;23;20454;-77
2024/01/28 04:23:52;;;;;;;17.07;9.03;;;3.30;94.10;;;;;;6245466;23;20010;-75
2024/01/28 04:26:19;;;;;;;16.30;8.13;;;3.30;94.00;;;;;;6245046;23;20370;-79
2024/01/28 04:28:47;;;;;;;14.60;8.07;;;3.30;93.90;;;;;;6245049;23;20018;-78
2024/01/28 04:31:14;;;;;;;16.53;8.33;;;3.30;93.80;;;;;;6244955;23;20001;-77
2024/01/28 04:33:41;;;;;;;11.70;6.20;;;3.30;93.70;;;;;;6245179;23;20155;-77
2024/01/28 04:36:07;;;;;;;10.80;5.57;;;3.20;94.20;;;;;;6245081;23;20040;-78
2024/01/28 04:38:36;;;;;;;13.30;6.80;;;3.30;94.10;;;;;;6244959;23;20060;-78
2024/01/28 04:41:02;;;;;;;12.07;6.80;;;3.30;94.20;;;;;;6245476;23;20391;-77
2024/01/28 04:43:28;;;;;;;9.50;6.43;;;3.30;94.10;;;;;;6244669;23;20442;-78
2024/01/28 04:45:54;;;;;;;9.93;6.57;;;3.30;94.20;;;;;;6244602;23;20000;-77
2024/01/28 04:48:20;;;;;;;10.30;5.83;;;3.40;94.10;;;;;;6244932;23;20008;-78
2024/01/28 04:50:46;;;;;;;7.83;5.03;;;3.40;94.10;;;;;;6245241;23;20035;-78
2024/01/28 04:53:12;;;;;;;8.63;4.30;;;3.40;93.60;;;;;;6244859;23;20003;-78
2024/01/28 04:55:38;;;;;;;5.90;3.63;;;3.40;93.40;;;;;;6244862;23;20004;-79
2024/01/28 04:58:04;;;;;;;6.53;3.10;;;3.70;93.40;;;;;;6245108;23;20011;-76
2024/01/28 05:00:29;;;;;;;7.10;3.23;;;3.60;93.30;;;;;;6244724;23;20008;-78
2024/01/28 05:02:56;;;;;;;5.70;3.00;;;3.60;93.20;;;;;;6244718;23;19997;-76
2024/01/28 05:05:22;;;;;;;6.17;2.80;;;3.70;93.00;;;;;;6244854;23;20373;-78
2024/01/28 05:07:49;;;;;;;9.30;2.70;;;3.70;92.80;;;;;;6245189;23;20000;-79
2024/01/28 05:10:15;;;;;;;5.90;2.50;;;3.80;92.60;;;;;;6244640;23;20007;-78
2024/01/28 05:12:41;;;;;;;6.10;2.50;;;3.80;92.30;;;;;;6244715;23;20004;-78
2024/01/28 05:15:07;;;;;;;6.00;2.77;;;3.80;91.90;;;;;;6244685;23;20000;-78
2024/01/28 05:17:35;;;;;;;4.13;2.17;;;3.90;91.90;;;;;;6244738;23;20380;-78
2024/01/28 05:20:02;;;;;;;3.37;2.10;;;3.90;91.60;;;;;;6244749;23;20008;-79
2024/01/28 05:22:28;;;;;;;5.20;2.07;;;3.90;91.40;;;;;;6245080;23;20035;-78
2024/01/28 05:24:55;;;;;;;4.13;2.13;;;3.90;91.20;;;;;;6246854;23;19996;-78
2024/01/28 05:27:21;;;;;;;3.87;2.30;;;3.90;91.10;;;;;;6245810;23;20008;-76
2024/01/28 05:29:46;;;;;;;9.57;4.33;;;4.00;91.00;;;;;;6245921;23;20031;-78
2024/01/28 05:32:14;;;;;;;12.57;6.77;;;4.00;90.80;;;;;;6246389;23;20000;-76
2024/01/28 05:34:40;;;;;;;14.00;7.50;;;4.10;90.40;;;;;;6246471;23;20046;-77
2024/01/28 05:37:05;;;;;;;15.77;8.00;;;3.90;90.60;;;;;;6246744;23;20008;-78
2024/01/28 05:39:31;;;;;;;13.47;7.43;;;3.80;90.90;;;;;;6246577;23;20003;-77
2024/01/28 05:41:57;;;;;;;16.07;7.03;;;3.60;91.10;;;;;;6246487;23;20013;-77
2024/01/28 05:44:23;;;;;;;14.90;7.50;;;3.50;91.20;;;;;;6246515;23;19992;-78
2024/01/28 05:46:49;;;;;;;10.43;6.73;;;3.50;91.20;;;;;;6245942;23;20031;-77
2024/01/28 05:49:15;;;;;;;16.77;8.33;;;3.40;91.10;;;;;;6246426;23;19996;-77
2024/01/28 05:51:41;;;;;;;15.53;8.17;;;3.30;91.20;;;;;;6246398;23;20080;-77
2024/01/28 05:54:07;;;;;;;17.67;9.43;;;3.20;91.30;;;;;;6246413;23;20018;-77
2024/01/28 05:56:33;;;;;;;18.27;8.47;;;;;;;;;;6246304;23;20046;-78
2024/01/28 05:58:59;;;;;;;17.93;8.47;;;3.10;91.50;;;;;;6246197;23;20004;-77
2024/01/28 06:01:24;;;;;;;13.27;7.97;;;2.80;91.90;;;;;;6245479;23;20008;-77
2024/01/28 06:03:50;;;;;;;11.00;6.00;;;2.80;95.90;;;;;;6246386;23;20091;-77
2024/01/28 06:06:16;;;;;;;11.93;7.03;;;2.70;97.30;;;;;;6246483;23;20000;-78
2024/01/28 06:08:42;;;;;;;11.90;6.20;;;2.70;96.10;;;;;;6246148;23;20053;-78
2024/01/28 06:11:07;;;;;;;11.67;5.80;;;2.70;96.20;;;;;;6246154;23;20004;-76
2024/01/28 06:13:33;;;;;;;10.10;5.63;;;2.80;96.10;;;;;;6246142;23;20327;-78
2024/01/28 06:15:59;;;;;;;9.43;5.53;;;2.80;96.20;;;;;;6246342;23;20004;-78
2024/01/28 06:18:25;;;;;;;9.87;5.83;;;2.80;96.10;;;;;;6246063;23;20449;-78
2024/01/28 06:20:51;;;;;;;10.50;5.90;;;2.80;96.10;;;;;;6245459;23;20016;-77
2024/01/28 06:23:17;;;;;;;11.23;6.30;;;2.80;96.10;;;;;;6245328;23;20300;-77
2024/01/28 06:25:42;;;;;;;8.77;5.80;;;2.80;96.00;;;;;;6246119;23;20031;-79
2024/01/28 06:28:09;;;;;;;11.53;6.30;;;2.90;95.90;;;;;;6246052;23;20000;-78
2024/01/28 06:30:35;;;;;;;11.50;5.50;;;2.90;95.70;;;;;;6218942;23;20004;-77
2024/01/28 06:33:03;;;;;;;10.73;5.10;;;2.90;95.70;;;;;;6243769;23;20010;-75
2024/01/28 06:35:30;;;;;;;12.67;7.07;;;3.00;95.50;;;;;;6215527;23;20327;-78
2024/01/28 06:37:56;;;;;;;11.33;6.40;;;3.00;95.10;;;;;;6242665;23;20007;-77
2024/01/28 06:40:22;;;;;;;9.80;5.50;;;3.00;94.70;;;;;;6243526;23;20008;-78
2024/01/28 06:42:48;;;;;;;10.33;5.93;;;3.00;94.80;;;;;;6246043;23;20079;-77
2024/01/28 06:45:14;;;;;;;11.67;6.70;;;3.00;94.50;;;;;;6246430;23;20089;-78
2024/01/28 06:47:39;;;;;;;12.17;7.37;;;3.00;94.50;;;;;;6245958;23;20000;-78
2024/01/28 06:50:05;;;;;;;12.60;7.03;;;2.90;94.70;;;;;;6245745;23;20000;-79
2024/01/28 06:52:31;;;;;;;11.70;6.70;;;2.80;95.20;;;;;;6246172;23;20027;-78
2024/01/28 06:54:58;;;;;;;14.43;7.77;;;2.70;95.50;;;;;;6245760;23;20007;-78
2024/01/28 06:57:24;;;;;;;15.87;7.80;;;2.70;95.60;;;;;;6245594;23;20007;-78
2024/01/28 06:59:49;;;;;;;15.10;8.10;;;2.70;95.60;;;;;;6245375;23;20000;-77
2024/01/28 07:02:16;;;;;;;14.63;7.67;;;2.70;95.60;;;;;;6245800;23;20016;-78
2024/01/28 07:04:42;;;;;;;14.90;7.70;;;2.60;95.70;;;;;;6245614;23;20111;-77
2024/01/28 07:07:07;;;;;;;23.33;8.03;;;2.60;95.80;;;;;;6245478;23;20428;-78
2024/01/28 07:09:33;;;;;;;21.83;9.67;;;2.50;95.90;;;;;;6245686;23;20004;-77
2024/01/28 07:11:59;;;;;;;14.23;7.87;;;2.60;96.10;;;;;;6245690;23;20354;-76
2024/01/28 07:14:25;;;;;;;16.33;8.70;;;2.50;96.20;;;;;;6218583;23;20363;-77
2024/01/28 07:16:51;;;;;;;14.53;8.17;;;2.60;96.10;;;;;;6243631;23;20087;-79
2024/01/28 07:19:17;;;;;;;16.63;9.17;;;2.60;96.00;;;;;;6241968;23;20000;-79
2024/01/28 07:21:44;;;;;;;16.53;9.33;;;2.60;96.10;;;;;;6242361;23;20023;-78
2024/01/28 07:24:10;;;;;;;13.23;8.90;;;2.60;96.20;;;;;;6244368;23;20050;-81
2024/01/28 07:26:35;;;;;;;13.73;7.93;;;2.70;96.20;;;;;;6245530;23;20032;-78
2024/01/28 07:29:01;;;;;;;16.03;7.67;;;2.70;96.00;;;;;;6245750;23;20000;-77
2024/01/28 07:31:27;;;;;;;13.37;7.63;;;2.80;96.00;;;;;;6245355;23;20031;-74
2024/01/28 07:33:53;;;;;;;15.83;7.07;;;2.80;95.90;;;;;;6245314;23;20058;-77
2024/01/28 07:36:19;;;;;;;13.13;7.27;;;2.80;96.30;;;;;;6245028;23;20008;-78
2024/01/28 07:38:44;;;;;;;12.00;6.90;;;2.80;96.50;;;;;;6245121;23;20003;-76
2024/01/28 07:41:16;;;;;;;10.80;6.77;;;2.90;96.20;;;;;;6244867;23;20019;-76
2024/01/28 07:43:42;;;;;;;10.07;6.03;;;3.00;95.90;;;;;;6245152;23;20118;-76
2024/01/28 07:46:09;;;;;;;21.30;7.10;;;3.20;95.40;;;;;;6245061;23;20000;-77
2024/01/28 07:48:35;;;;;;;16.20;9.43;;;3.30;95.20;;;;;;6245008;23;20074;-77
2024/01/28 07:51:02;;;;;;;19.87;10.07;;;3.40;95.30;;;;;;6244495;23;20000;-78
2024/01/28 07:53:28;;;;;;;19.27;11.17;;;3.50;94.80;;;;;;6244251;23;20008;-75
2024/01/28 07:55:54;;;;;;;17.77;10.30;;;3.50;94.80;;;;;;6242686;23;20004;-73
2024/01/28 07:58:20;;;;;;;19.47;10.37;;;3.40;94.90;;;;;;6244620;23;20004;-73
2024/01/28 08:00:46;;;;;;;16.83;9.53;;;3.50;95.20;;;;;;6244419;23;20015;-72
2024/01/28 08:03:11;;;;;;;16.00;9.63;;;3.50;95.50;;;;;;6244414;23;20008;-74
2024/01/28 08:05:37;;;;;;;17.97;9.43;;;3.50;95.40;;;;;;6244774;23;20027;-78
2024/01/28 08:08:03;;;;;;;20.10;10.10;;;3.50;95.40;;;;;;6243803;23;20067;-77
2024/01/28 08:10:29;;;;;;;14.83;9.30;;;3.60;95.60;;;;;;6241860;23;20008;-78
2024/01/28 08:12:55;;;;;;;14.57;8.43;;;3.60;96.00;;;;;;6243437;23;20035;-77
2024/01/28 08:15:21;;;;;;;12.37;7.67;;;3.70;95.90;;;;;;6244487;23;20480;-77
2024/01/28 08:17:49;;;;;;;14.10;7.83;;;3.80;95.60;;;;;;6244874;23;20024;-77
2024/01/28 08:20:15;;;;;;;13.80;8.10;;;3.90;95.50;;;;;;6244693;22;20086;-81
2024/01/28 08:22:41;;;;;;;17.97;8.93;;;4.00;95.40;;;;;;6244178;23;20062;-78
2024/01/28 08:25:07;;;;;;;15.63;9.00;;;4.10;95.60;;;;;;6245234;23;19996;-80
2024/01/28 08:27:33;;;;;;;14.40;8.80;;;4.20;95.70;;;;;;6243937;23;20438;-80
2024/01/28 08:29:59;;;;;;;13.00;7.73;;;4.30;95.60;;;;;;6245302;23;20004;-78
2024/01/28 08:32:24;;;;;;;17.03;9.27;;;4.30;95.40;;;;;;6244898;23;20027;-77
2024/01/28 08:34:51;;;;;;;15.30;9.63;;;4.50;95.30;;;;;;6244814;23;20006;-77
2024/01/28 08:37:17;;;;;;;15.27;9.23;;;4.60;95.30;;;;;;6244485;23;20000;-78
2024/01/28 08:39:43;;;;;;;16.83;9.97;;;4.70;95.30;;;;;;6218170;23;20004;-76
2024/01/28 08:42:09;;;;;;;18.37;10.40;;;4.80;95.50;;;;;;6218618;23;20107;-76
2024/01/28 08:44:35;;;;;;;16.63;8.30;;;4.90;95.80;;;;;;6244574;23;20079;-77
2024/01/28 08:47:02;;;;;;;10.90;6.60;;;5.10;95.50;;;;;;6245269;23;20000;-77
2024/01/28 08:49:28;;;;;;;12.93;7.30;;;5.20;94.70;;;;;;6245192;23;20019;-77
2024/01/28 08:51:54;;;;;;;13.60;7.17;;;5.30;94.10;;;;;;6245401;23;20030;-77
2024/01/28 08:54:20;;;;;;;11.20;6.90;;;5.40;93.70;;;;;;6244968;23;20000;-78
2024/01/28 08:56:47;;;;;;;14.10;7.63;;;5.40;93.20;;;;;;6245283;23;20066;-77
2024/01/28 08:59:13;;;;;;;12.40;6.83;;;5.50;92.60;;;;;;6245841;23;20000;-75
2024/01/28 09:01:39;;;;;;;12.17;6.10;;;5.60;92.10;;;;;;6246633;23;20071;-77
2024/01/28 09:04:05;;;;;;;9.53;6.10;;;5.70;91.90;;;;;;6246984;23;19996;-77
2024/01/28 09:06:31;;;;;;;8.83;5.30;;;5.80;91.90;;;;;;6246903;23;20139;-77
2024/01/28 09:08:57;;;;;;;9.20;5.73;;;5.80;91.70;;;;;;6246669;23;19996;-75
2024/01/28 09:11:22;;;;;;;9.83;6.27;;;5.90;91.60;;;;;;6246847;23;20000;-74
2024/01/28 09:13:48;;;;;;;10.27;5.90;;;6.00;91.30;;;;;;6247005;23;20024;-75
2024/01/28 09:16:14;;;;;;;7.67;5.20;;;6.00;91.10;;;;;;6247058;23;20079;-74
2024/01/28 09:18:42;;;;;;;10.03;5.77;;;6.10;90.80;;;;;;6246720;23;20028;-74
2024/01/28 09:21:09;;;;;;;10.97;5.20;;;6.10;90.90;;;;;;6246531;22;20384;-73
2024/01/28 09:23:35;;;;;;;9.43;5.20;;;6.20;90.80;;;;;;6246803;23;20418;-74
2024/01/28 09:26:01;;;;;;;13.13;8.00;;;6.30;91.00;;;;;;6245450;23;20074;-78
2024/01/28 09:28:27;;;;;;;14.73;8.20;;;6.40;91.40;;;;;;6247190;23;20004;-77
2024/01/28 09:30:52;;;;;;;12.40;8.03;;;6.50;91.30;;;;;;6246662;23;20000;-77
2024/01/28 09:33:18;;;;;;;13.83;8.17;;;6.60;91.10;;;;;;6245119;23;20004;-78
2024/01/28 09:35:46;;;;;;;13.87;7.37;;;6.70;92.50;;;;;;6243459;23;20012;-77
2024/01/28 09:38:12;;;;;;;14.07;7.63;;;6.80;91.10;;;;;;6244795;23;20007;-77
2024/01/28 09:40:38;;;;;;;13.07;7.13;;;6.90;91.60;;;;;;6246641;23;20008;-77
2024/01/28 09:43:22;;;;;;;13.37;7.50;;;6.90;90.40;;;;;;6246664;23;20004;-77
2024/01/28 09:45:48;;;;;;;11.47;6.77;;;7.00;90.10;;;;;;6246979;23;20011;-77
2024/01/28 09:48:15;;;;;;;10.70;6.50;;;7.10;90.00;;;;;;6246807;23;20075;-77
2024/01/28 09:50:41;;;;;;;12.83;6.53;;;7.10;90.10;;;;;;6246606;23;20010;-77
2024/01/28 09:53:07;;;;;;;10.93;6.50;;;7.20;90.20;;;;;;6246819;23;20028;-77
2024/01/28 09:55:33;;;;;;;12.20;6.70;;;7.30;90.10;;;;;;6219932;23;20027;-75
2024/01/28 09:57:59;;;;;;;9.13;5.93;;;7.30;90.80;;;;;;6245357;23;20015;-75
2024/01/28 10:00:25;;;;;;;11.37;5.80;;;7.40;91.30;;;;;;6243073;23;20623;-74
2024/01/28 10:02:51;;;;;;;9.83;5.80;;;7.50;91.60;;;;;;6243252;23;20087;-78
2024/01/28 10:05:17;;;;;;;11.10;5.43;;;7.50;92.10;;;;;;6245330;23;20023;-77
2024/01/28 10:07:44;;;;;;;11.33;5.13;;;7.60;92.50;;;;;;6246429;23;20103;-75
2024/01/28 10:10:12;;;;;;;9.20;4.97;;;7.70;92.50;;;;;;6246143;23;20000;-74
2024/01/28 10:12:38;;;;;;;7.90;4.77;;;7.80;91.30;;;;;;6246071;23;20027;-75
2024/01/28 10:15:13;;;;;;;10.43;4.40;;;7.80;88.10;;;;;;6246085;23;20000;-74
2024/01/28 10:17:41;;;;;;;11.37;4.13;;;7.90;86.50;;;;;;6245748;23;20030;-75
2024/01/28 10:20:07;;;;;;;5.70;3.23;;;8.00;86.70;;;;;;6246024;22;20027;-76
2024/01/28 10:22:34;;;;;;;5.13;2.30;;;8.00;86.00;;;;;;6244976;23;20034;-75
2024/01/28 10:24:59;;;;;;;4.73;3.00;;;8.20;86.60;;;;;;6246327;23;20007;-75
2024/01/28 10:27:25;;;;;;;5.00;2.27;;;8.20;90.80;;;;;;6246385;23;20008;-76
2024/01/28 10:29:51;;;;;;;7.30;2.63;;;;;;;;;;6245894;23;19996;-75
2024/01/28 10:32:17;;;;;;;4.33;2.33;;;;;;;;;;6245842;23;20437;-77
2024/01/28 10:34:44;;;;;;;6.20;2.57;;;;;;;;;;6246184;23;20090;-76
2024/01/28 10:37:14;;;;;;;3.87;2.67;;;;;;;;;;6246113;23;20007;-76
2024/01/28 10:39:43;;;;;;;4.17;2.30;;;;;;;;;;6246047;23;20055;-76
2024/01/28 10:42:15;;;;;;;4.67;2.60;;;8.70;97.20;;;;;;6219047;23;20012;-76
2024/01/28 10:44:47;;;;;;;6.80;2.47;;;8.70;91.60;;;;;;6245913;23;20078;-76
2024/01/28 10:47:14;;;;;;;5.67;2.70;;;8.80;92.10;;;;;;6246041;23;20054;-76
2024/01/28 10:49:43;;;;;;;4.50;2.40;;;8.90;91.50;;;;;;6219380;23;20083;-76
2024/01/28 10:52:10;;;;;;;4.70;2.30;;;8.90;90.30;;;;;;6245680;23;20075;-75
2024/01/28 10:54:40;;;;;;;3.70;2.40;;;9.10;89.50;;;;;;6245859;23;20027;-76
2024/01/28 10:57:06;;;;;;;4.13;2.10;;;9.10;78.20;;;;;;6246120;23;20322;-76
2024/01/28 10:59:37;;;;;;;5.03;2.50;;;9.20;78.70;;;;;;6246035;23;20000;-75
2024/01/28 11:02:03;;;;;;;3.90;2.37;;;9.30;77.70;;;;;;6245335;23;20012;-75
2024/01/28 11:04:29;;;;;;;3.10;1.80;;;9.40;76.90;;;;;;6245548;23;20448;-76
2024/01/28 11:06:56;;;;;;;3.67;2.37;;;9.50;74.90;;;;;;6245766;23;20000;-76
2024/01/28 11:09:22;;;;;;;4.23;2.47;;;9.60;74.00;;;;;;6245803;23;19996;-76
2024/01/28 11:11:48;;;;;;;4.00;2.37;;;9.60;72.90;;;;;;6246213;23;20347;-74
2024/01/28 11:14:14;;;;;;;5.00;2.20;;;9.70;72.90;;;;;;6245987;23;20004;-75
2024/01/28 11:16:40;;;;;;;4.03;2.30;;;9.90;72.00;;;;;;6218963;23;20010;-75
2024/01/28 11:19:07;;;;;;;2.67;1.83;;;9.90;72.60;;;;;;6245608;23;20081;-74
2024/01/28 11:21:38;;;;;;;4.00;1.80;;;10.00;68.30;;;;;;6244599;22;20023;-75
2024/01/28 11:24:11;;;;;;;2.80;1.80;;;10.10;65.60;;;;;;6245630;23;20000;-75
2024/01/28 11:26:43;;;;;;;4.03;2.50;;;10.20;59.30;;;;;;6245980;23;20004;-75
2024/01/28 11:29:09;;;;;;;3.33;1.95;;;10.30;59.30;;;;;;6244837;23;20276;-75
2024/01/28 11:31:38;;;;;;;2.87;1.90;;;10.40;60.00;;;;;;6245595;23;20004;-76
2024/01/28 11:34:19;;;;;;;2.73;1.70;;;10.50;61.00;;;;;;6245521;23;20000;-75
2024/01/28 11:36:46;;;;;;;2.80;1.67;;;10.50;61.40;;;;;;6246131;23;20031;-75
2024/01/28 11:39:14;;;;;;;3.40;2.07;;;10.60;62.60;;;;;;6245815;23;20019;-75
2024/01/28 11:41:42;;;;;;;3.20;1.80;;;10.70;63.60;;;;;;6245966;23;20012;-74
2024/01/28 11:44:08;;;;;;;2.63;1.83;;;10.70;58.20;;;;;;6245769;23;20322;-75
2024/01/28 11:46:36;;;;;;;3.50;1.50;;;10.80;57.60;;;;;;6245510;23;20457;-75
2024/01/28 11:49:02;;;;;;;2.80;1.53;;;10.90;57.90;;;;;;6245725;23;20058;-74
2024/01/28 11:51:33;;;;;;;2.43;1.30;;;10.90;60.70;;;;;;6245453;23;20373;-72
2024/01/28 11:54:03;;;;;;;3.87;1.47;;;11.00;62.70;;;;;;6218713;23;20000;-74
2024/01/28 11:56:31;;;;;;;3.37;1.73;;;11.10;63.40;;;;;;6245864;23;20004;-76
2024/01/28 11:58:57;;;;;;;3.40;1.60;;;11.20;64.40;;;;;;6243430;23;20756;-72
2024/01/28 12:01:24;;;;;;;2.10;1.37;;;11.20;62.50;;;;;;6241775;23;20071;-75
2024/01/28 12:03:51;;;;;;;2.38;1.50;;;11.30;62.80;;;;;;6244206;23;20061;-74
2024/01/28 12:06:17;;;;;;;3.10;1.80;;;11.30;63.10;;;;;;6245559;23;20054;-74
2024/01/28 12:08:43;;;;;;;2.58;1.60;;;11.40;62.70;;;;;;6245617;23;20008;-75
2024/01/28 12:11:13;;;;;;;2.92;1.73;;;11.50;60.80;;;;;;6245266;23;20051;-75
2024/01/28 12:13:40;;;;;;;2.97;1.65;;;11.50;56.40;;;;;;6245319;23;20048;-75
2024/01/28 12:16:06;;;;;;;3.03;1.38;;;11.60;54.00;;;;;;6245802;23;20330;-75
2024/01/28 12:18:40;;;;;;;3.08;1.55;;;11.60;53.20;;;;;;6245466;23;20001;-76
2024/01/28 12:21:25;;;;;;;4.15;1.75;;;11.70;54.60;;;;;;6217609;23;20406;-75
2024/01/28 12:24:02;;;;;;;3.25;2.00;;;11.80;53.20;;;;;;6242685;23;20368;-75
2024/01/28 12:26:29;;;;;;;4.03;1.60;;;11.80;54.00;;;;;;6241770;23;20008;-73
2024/01/28 12:28:55;;;;;;;2.78;1.60;;;11.90;53.50;;;;;;6242174;23;20453;-75
2024/01/28 12:31:22;;;;;;;4.07;1.98;;;11.90;54.10;;;;;;6245376;23;20487;-75
2024/01/28 12:33:49;;;;;;;4.53;1.90;;;12.00;54.50;;;;;;6247214;23;20050;-75
2024/01/28 12:36:16;;;;;;;2.95;2.00;;;12.00;53.10;;;;;;6247351;23;20004;-75
2024/01/28 12:38:42;;;;;;;5.57;2.58;;;12.10;53.50;;;;;;6246777;23;20112;-75
2024/01/28 12:41:08;;;;;;;4.32;2.30;;;12.10;54.30;;;;;;6247443;23;20048;-74
2024/01/28 12:43:36;;;;;;;4.60;2.88;;;12.20;54.80;;;;;;6247249;23;20000;-75
2024/01/28 12:46:02;;;;;;;5.18;3.50;;;12.20;55.50;;;;;;6246768;23;20027;-75
2024/01/28 12:48:27;;;;;;;9.10;6.28;;;12.20;56.70;;;;;;6247217;23;20000;-73
2024/01/28 12:50:53;;;;;;;18.05;11.32;;;12.20;60.50;;;;;;6247018;23;20004;-76
2024/01/28 12:53:19;;;;;;;15.65;11.80;;;12.20;64.50;;;;;;6219923;23;20008;-74
2024/01/28 12:55:46;;;;;;;14.32;11.05;;;12.30;68.90;;;;;;6247366;23;20000;-76
2024/01/28 12:58:12;;;;;;;14.55;11.40;;;12.30;69.80;;;;;;6247240;23;20341;-75